Grandes-Bergeronnes, Canada
Current Conditions -  °F | °C
As of 3:00 AM on Saturday 29 Nov 2014 (Local Time) from CYYY Reporting Station
Snow Showers Snow Showers  
Wind Chill:   Ceiling: 1800
Heat Index: 16°   Visibility: 15mi
Dew Point:   Wind: 10mph
Humidity: 68%   Direction: 280°W
Pressure: 30.13"   Gusts: NA
Location:  48.25°N, 69.55°W
Report Text: CYYY 290800Z 28009KT 15SM -SHSN BKN018 M09/M14 A3013 RMK SC7 SLP206
Loading
Personal Weather Stations






























Interactive Weather Map New forecast layout! Learn more

10-Day Weather Forecast

Advertisements
Track Severe Weather on mobile